sensor_id;sensor_type;location;lat;lon;timestamp;P1;durP1;ratioP1;P2;durP2;ratioP2
3939;SDS011;1984;48.312;9.244;2023-08-06T00:01:48;2.27;;;2.17;;
3939;SDS011;1984;48.312;9.244;2023-08-06T00:04:13;2.03;;;1.93;;
3939;SDS011;1984;48.312;9.244;2023-08-06T00:06:39;1.87;;;1.77;;
3939;SDS011;1984;48.312;9.244;2023-08-06T00:09:04;2.10;;;2.00;;
3939;SDS011;1984;48.312;9.244;2023-08-06T00:11:30;2.63;;;2.10;;
3939;SDS011;1984;48.312;9.244;2023-08-06T00:13:55;5.60;;;1.60;;
3939;SDS011;1984;48.312;9.244;2023-08-06T00:16:21;2.40;;;2.20;;
3939;SDS011;1984;48.312;9.244;2023-08-06T00:18:46;2.20;;;2.00;;
3939;SDS011;1984;48.312;9.244;2023-08-06T00:21:12;1.93;;;1.83;;
3939;SDS011;1984;48.312;9.244;2023-08-06T00:23:38;2.10;;;1.90;;
3939;SDS011;1984;48.312;9.244;2023-08-06T00:26:04;3.17;;;1.70;;
3939;SDS011;1984;48.312;9.244;2023-08-06T00:28:29;5.70;;;1.80;;
3939;SDS011;1984;48.312;9.244;2023-08-06T00:30:55;4.40;;;1.70;;
3939;SDS011;1984;48.312;9.244;2023-08-06T00:33:21;8.83;;;2.13;;
3939;SDS011;1984;48.312;9.244;2023-08-06T00:35:47;1.87;;;1.77;;
3939;SDS011;1984;48.312;9.244;2023-08-06T00:38:13;2.90;;;2.30;;
3939;SDS011;1984;48.312;9.244;2023-08-06T00:40:38;3.70;;;1.93;;
3939;SDS011;1984;48.312;9.244;2023-08-06T00:43:04;2.10;;;1.90;;
3939;SDS011;1984;48.312;9.244;2023-08-06T00:45:30;3.90;;;3.17;;
3939;SDS011;1984;48.312;9.244;2023-08-06T00:47:56;2.27;;;2.10;;
3939;SDS011;1984;48.312;9.244;2023-08-06T00:50:22;3.13;;;2.33;;
3939;SDS011;1984;48.312;9.244;2023-08-06T00:52:51;8.10;;;1.83;;
3939;SDS011;1984;48.312;9.244;2023-08-06T00:55:17;3.63;;;2.20;;
3939;SDS011;1984;48.312;9.244;2023-08-06T00:57:42;3.00;;;1.90;;
3939;SDS011;1984;48.312;9.244;2023-08-06T01:00:08;1.90;;;1.67;;
3939;SDS011;1984;48.312;9.244;2023-08-06T01:02:34;2.23;;;2.03;;
3939;SDS011;1984;48.312;9.244;2023-08-06T01:05:00;1.90;;;1.80;;
3939;SDS011;1984;48.312;9.244;2023-08-06T01:07:43;1.90;;;1.80;;
3939;SDS011;1984;48.312;9.244;2023-08-06T01:10:23;2.60;;;1.83;;
3939;SDS011;1984;48.312;9.244;2023-08-06T01:15:38;1.97;;;1.87;;
3939;SDS011;1984;48.312;9.244;2023-08-06T01:18:10;1.83;;;1.73;;
3939;SDS011;1984;48.312;9.244;2023-08-06T01:20:35;2.10;;;2.00;;
3939;SDS011;1984;48.312;9.244;2023-08-06T01:23:01;5.13;;;2.40;;
3939;SDS011;1984;48.312;9.244;2023-08-06T01:25:29;2.10;;;2.00;;
3939;SDS011;1984;48.312;9.244;2023-08-06T01:28:01;2.37;;;2.17;;
3939;SDS011;1984;48.312;9.244;2023-08-06T01:30:43;3.00;;;2.40;;
3939;SDS011;1984;48.312;9.244;2023-08-06T01:33:12;2.40;;;1.97;;
3939;SDS011;1984;48.312;9.244;2023-08-06T01:35:42;2.13;;;2.03;;
3939;SDS011;1984;48.312;9.244;2023-08-06T01:38:09;1.87;;;1.70;;
3939;SDS011;1984;48.312;9.244;2023-08-06T01:40:34;2.33;;;2.13;;
3939;SDS011;1984;48.312;9.244;2023-08-06T01:43:00;1.57;;;1.47;;
3939;SDS011;1984;48.312;9.244;2023-08-06T01:45:25;8.40;;;1.80;;
3939;SDS011;1984;48.312;9.244;2023-08-06T01:47:51;1.80;;;1.70;;
3939;SDS011;1984;48.312;9.244;2023-08-06T01:50:16;1.97;;;1.87;;
3939;SDS011;1984;48.312;9.244;2023-08-06T01:52:42;2.60;;;2.00;;
3939;SDS011;1984;48.312;9.244;2023-08-06T01:55:07;3.73;;;2.07;;
3939;SDS011;1984;48.312;9.244;2023-08-06T01:57:33;5.63;;;2.23;;
3939;SDS011;1984;48.312;9.244;2023-08-06T01:59:58;6.83;;;2.47;;
3939;SDS011;1984;48.312;9.244;2023-08-06T02:02:24;6.17;;;1.73;;
3939;SDS011;1984;48.312;9.244;2023-08-06T02:04:49;2.10;;;1.73;;
3939;SDS011;1984;48.312;9.244;2023-08-06T02:07:15;3.67;;;2.30;;
3939;SDS011;1984;48.312;9.244;2023-08-06T02:09:40;2.30;;;1.97;;
3939;SDS011;1984;48.312;9.244;2023-08-06T02:12:06;5.30;;;1.67;;
3939;SDS011;1984;48.312;9.244;2023-08-06T02:14:32;2.30;;;2.10;;
3939;SDS011;1984;48.312;9.244;2023-08-06T02:16:58;2.13;;;1.70;;
3939;SDS011;1984;48.312;9.244;2023-08-06T02:19:23;2.27;;;2.07;;
3939;SDS011;1984;48.312;9.244;2023-08-06T02:21:49;2.27;;;1.80;;
3939;SDS011;1984;48.312;9.244;2023-08-06T02:24:14;2.50;;;1.90;;
3939;SDS011;1984;48.312;9.244;2023-08-06T02:26:40;1.67;;;1.57;;
3939;SDS011;1984;48.312;9.244;2023-08-06T02:29:05;2.53;;;2.33;;
3939;SDS011;1984;48.312;9.244;2023-08-06T02:31:31;10.33;;;2.97;;
3939;SDS011;1984;48.312;9.244;2023-08-06T02:33:56;2.07;;;1.97;;
3939;SDS011;1984;48.312;9.244;2023-08-06T02:36:23;3.07;;;2.00;;
3939;SDS011;1984;48.312;9.244;2023-08-06T02:38:49;2.37;;;2.17;;
3939;SDS011;1984;48.312;9.244;2023-08-06T02:41:15;2.50;;;2.30;;
3939;SDS011;1984;48.312;9.244;2023-08-06T02:43:40;4.07;;;2.30;;
3939;SDS011;1984;48.312;9.244;2023-08-06T02:46:06;2.57;;;2.37;;
3939;SDS011;1984;48.312;9.244;2023-08-06T02:48:31;1.83;;;1.73;;
3939;SDS011;1984;48.312;9.244;2023-08-06T02:50:57;3.40;;;1.80;;
3939;SDS011;1984;48.312;9.244;2023-08-06T02:53:24;2.70;;;2.00;;
3939;SDS011;1984;48.312;9.244;2023-08-06T02:55:50;1.70;;;1.50;;
3939;SDS011;1984;48.312;9.244;2023-08-06T02:58:15;2.57;;;2.00;;
3939;SDS011;1984;48.312;9.244;2023-08-06T03:00:42;1.70;;;1.60;;
3939;SDS011;1984;48.312;9.244;2023-08-06T03:03:08;3.07;;;1.93;;
3939;SDS011;1984;48.312;9.244;2023-08-06T03:05:33;3.77;;;1.80;;
3939;SDS011;1984;48.312;9.244;2023-08-06T03:07:59;2.17;;;1.50;;
3939;SDS011;1984;48.312;9.244;2023-08-06T03:10:25;2.20;;;2.00;;
3939;SDS011;1984;48.312;9.244;2023-08-06T03:12:51;4.00;;;1.60;;
3939;SDS011;1984;48.312;9.244;2023-08-06T03:15:17;2.77;;;1.80;;
3939;SDS011;1984;48.312;9.244;2023-08-06T03:17:42;4.50;;;1.90;;
3939;SDS011;1984;48.312;9.244;2023-08-06T03:20:09;3.27;;;1.70;;
3939;SDS011;1984;48.312;9.244;2023-08-06T03:22:35;1.70;;;1.60;;
3939;SDS011;1984;48.312;9.244;2023-08-06T03:25:00;2.60;;;2.40;;
3939;SDS011;1984;48.312;9.244;2023-08-06T03:27:26;6.30;;;2.13;;
3939;SDS011;1984;48.312;9.244;2023-08-06T03:29:51;4.67;;;1.90;;
3939;SDS011;1984;48.312;9.244;2023-08-06T03:32:17;1.77;;;1.67;;
3939;SDS011;1984;48.312;9.244;2023-08-06T03:34:42;3.33;;;1.80;;
3939;SDS011;1984;48.312;9.244;2023-08-06T03:37:08;2.70;;;1.50;;
3939;SDS011;1984;48.312;9.244;2023-08-06T03:39:33;4.57;;;1.53;;
3939;SDS011;1984;48.312;9.244;2023-08-06T03:41:59;1.70;;;1.60;;
3939;SDS011;1984;48.312;9.244;2023-08-06T03:44:24;2.20;;;2.03;;
3939;SDS011;1984;48.312;9.244;2023-08-06T03:46:51;2.40;;;2.13;;
3939;SDS011;1984;48.312;9.244;2023-08-06T03:49:17;5.30;;;2.57;;
3939;SDS011;1984;48.312;9.244;2023-08-06T03:51:43;2.20;;;2.00;;
3939;SDS011;1984;48.312;9.244;2023-08-06T03:54:08;1.77;;;1.67;;
3939;SDS011;1984;48.312;9.244;2023-08-06T03:56:34;2.60;;;2.10;;
3939;SDS011;1984;48.312;9.244;2023-08-06T03:58:59;2.30;;;2.10;;
3939;SDS011;1984;48.312;9.244;2023-08-06T04:01:25;10.83;;;1.87;;
3939;SDS011;1984;48.312;9.244;2023-08-06T04:03:50;2.20;;;1.93;;
3939;SDS011;1984;48.312;9.244;2023-08-06T04:06:16;2.10;;;1.90;;
3939;SDS011;1984;48.312;9.244;2023-08-06T04:08:41;1.60;;;1.50;;
3939;SDS011;1984;48.312;9.244;2023-08-06T04:11:07;2.90;;;1.67;;
3939;SDS011;1984;48.312;9.244;2023-08-06T04:13:33;3.20;;;1.60;;
3939;SDS011;1984;48.312;9.244;2023-08-06T04:16:02;5.60;;;2.17;;
3939;SDS011;1984;48.312;9.244;2023-08-06T04:18:28;5.23;;;1.80;;
3939;SDS011;1984;48.312;9.244;2023-08-06T04:20:53;1.90;;;1.80;;
3939;SDS011;1984;48.312;9.244;2023-08-06T04:23:20;1.93;;;1.80;;
3939;SDS011;1984;48.312;9.244;2023-08-06T04:25:46;1.90;;;1.70;;
3939;SDS011;1984;48.312;9.244;2023-08-06T04:28:11;1.70;;;1.60;;
3939;SDS011;1984;48.312;9.244;2023-08-06T04:30:37;1.90;;;1.70;;
3939;SDS011;1984;48.312;9.244;2023-08-06T04:33:03;2.73;;;1.90;;
3939;SDS011;1984;48.312;9.244;2023-08-06T04:35:28;1.63;;;1.43;;
3939;SDS011;1984;48.312;9.244;2023-08-06T04:37:54;2.83;;;1.93;;
3939;SDS011;1984;48.312;9.244;2023-08-06T04:40:19;1.60;;;1.50;;
3939;SDS011;1984;48.312;9.244;2023-08-06T04:42:45;1.83;;;1.70;;
3939;SDS011;1984;48.312;9.244;2023-08-06T04:45:10;3.07;;;1.90;;
3939;SDS011;1984;48.312;9.244;2023-08-06T04:47:36;2.60;;;1.80;;
3939;SDS011;1984;48.312;9.244;2023-08-06T04:50:01;2.50;;;1.80;;
3939;SDS011;1984;48.312;9.244;2023-08-06T04:52:27;2.53;;;1.73;;
3939;SDS011;1984;48.312;9.244;2023-08-06T04:54:53;2.23;;;1.50;;
3939;SDS011;1984;48.312;9.244;2023-08-06T04:57:19;3.27;;;1.57;;
3939;SDS011;1984;48.312;9.244;2023-08-06T04:59:45;2.33;;;1.30;;
3939;SDS011;1984;48.312;9.244;2023-08-06T05:02:11;2.50;;;1.70;;
3939;SDS011;1984;48.312;9.244;2023-08-06T05:04:36;1.70;;;1.60;;
3939;SDS011;1984;48.312;9.244;2023-08-06T05:07:02;1.20;;;1.10;;
3939;SDS011;1984;48.312;9.244;2023-08-06T05:09:28;1.00;;;1.00;;
3939;SDS011;1984;48.312;9.244;2023-08-06T05:11:54;1.33;;;1.00;;
3939;SDS011;1984;48.312;9.244;2023-08-06T05:14:19;1.00;;;0.77;;
3939;SDS011;1984;48.312;9.244;2023-08-06T05:16:45;1.50;;;1.40;;
3939;SDS011;1984;48.312;9.244;2023-08-06T05:19:10;0.60;;;0.60;;
3939;SDS011;1984;48.312;9.244;2023-08-06T05:21:36;2.33;;;0.90;;
3939;SDS011;1984;48.312;9.244;2023-08-06T05:24:01;0.80;;;0.80;;
3939;SDS011;1984;48.312;9.244;2023-08-06T05:26:27;1.20;;;0.83;;
3939;SDS011;1984;48.312;9.244;2023-08-06T05:28:52;0.60;;;0.60;;
3939;SDS011;1984;48.312;9.244;2023-08-06T05:31:18;1.80;;;0.87;;
3939;SDS011;1984;48.312;9.244;2023-08-06T05:33:43;1.37;;;0.60;;
3939;SDS011;1984;48.312;9.244;2023-08-06T05:36:09;1.13;;;0.60;;
3939;SDS011;1984;48.312;9.244;2023-08-06T05:38:34;1.37;;;0.90;;
3939;SDS011;1984;48.312;9.244;2023-08-06T05:41:00;0.70;;;0.70;;
3939;SDS011;1984;48.312;9.244;2023-08-06T05:43:25;0.77;;;0.60;;
3939;SDS011;1984;48.312;9.244;2023-08-06T05:45:51;2.10;;;0.60;;
3939;SDS011;1984;48.312;9.244;2023-08-06T05:48:17;1.00;;;0.60;;
3939;SDS011;1984;48.312;9.244;2023-08-06T05:50:42;0.80;;;0.70;;
3939;SDS011;1984;48.312;9.244;2023-08-06T05:53:08;0.73;;;0.73;;
3939;SDS011;1984;48.312;9.244;2023-08-06T05:55:34;0.60;;;0.60;;
3939;SDS011;1984;48.312;9.244;2023-08-06T05:58:00;0.60;;;0.60;;
3939;SDS011;1984;48.312;9.244;2023-08-06T06:00:26;0.63;;;0.63;;
3939;SDS011;1984;48.312;9.244;2023-08-06T06:02:51;0.83;;;0.60;;
3939;SDS011;1984;48.312;9.244;2023-08-06T06:05:17;0.60;;;0.60;;
3939;SDS011;1984;48.312;9.244;2023-08-06T06:07:42;2.17;;;0.70;;
3939;SDS011;1984;48.312;9.244;2023-08-06T06:10:08;0.70;;;0.70;;
3939;SDS011;1984;48.312;9.244;2023-08-06T06:12:34;1.77;;;0.80;;
3939;SDS011;1984;48.312;9.244;2023-08-06T06:14:59;1.23;;;0.80;;
3939;SDS011;1984;48.312;9.244;2023-08-06T06:17:26;2.70;;;0.70;;
3939;SDS011;1984;48.312;9.244;2023-08-06T06:19:52;0.67;;;0.67;;
3939;SDS011;1984;48.312;9.244;2023-08-06T06:22:17;2.40;;;0.70;;
3939;SDS011;1984;48.312;9.244;2023-08-06T06:24:43;0.50;;;0.50;;
3939;SDS011;1984;48.312;9.244;2023-08-06T06:27:08;0.73;;;0.73;;
3939;SDS011;1984;48.312;9.244;2023-08-06T06:29:34;0.63;;;0.60;;
3939;SDS011;1984;48.312;9.244;2023-08-06T06:31:59;1.37;;;0.60;;
3939;SDS011;1984;48.312;9.244;2023-08-06T06:34:25;0.60;;;0.50;;
3939;SDS011;1984;48.312;9.244;2023-08-06T06:36:50;2.80;;;2.10;;
3939;SDS011;1984;48.312;9.244;2023-08-06T06:39:17;0.90;;;0.70;;
3939;SDS011;1984;48.312;9.244;2023-08-06T06:41:43;2.70;;;0.60;;
3939;SDS011;1984;48.312;9.244;2023-08-06T06:44:09;2.70;;;0.90;;
3939;SDS011;1984;48.312;9.244;2023-08-06T06:46:34;0.90;;;0.50;;
3939;SDS011;1984;48.312;9.244;2023-08-06T06:49:00;0.97;;;0.50;;
3939;SDS011;1984;48.312;9.244;2023-08-06T06:51:25;2.17;;;0.70;;
3939;SDS011;1984;48.312;9.244;2023-08-06T06:53:51;1.37;;;0.63;;
3939;SDS011;1984;48.312;9.244;2023-08-06T06:56:16;0.80;;;0.50;;
3939;SDS011;1984;48.312;9.244;2023-08-06T06:58:42;2.20;;;0.57;;
3939;SDS011;1984;48.312;9.244;2023-08-06T07:01:08;0.87;;;0.60;;
3939;SDS011;1984;48.312;9.244;2023-08-06T07:03:35;0.50;;;0.50;;
3939;SDS011;1984;48.312;9.244;2023-08-06T07:06:01;0.83;;;0.50;;
3939;SDS011;1984;48.312;9.244;2023-08-06T07:08:26;0.57;;;0.57;;
3939;SDS011;1984;48.312;9.244;2023-08-06T07:11:01;0.50;;;0.50;;
3939;SDS011;1984;48.312;9.244;2023-08-06T07:13:28;0.50;;;0.50;;
3939;SDS011;1984;48.312;9.244;2023-08-06T07:15:54;0.50;;;0.50;;
3939;SDS011;1984;48.312;9.244;2023-08-06T07:18:20;0.50;;;0.50;;
3939;SDS011;1984;48.312;9.244;2023-08-06T07:20:49;0.50;;;0.50;;
3939;SDS011;1984;48.312;9.244;2023-08-06T07:23:16;0.50;;;0.50;;
3939;SDS011;1984;48.312;9.244;2023-08-06T07:25:41;0.50;;;0.50;;
3939;SDS011;1984;48.312;9.244;2023-08-06T07:28:07;0.70;;;0.60;;
3939;SDS011;1984;48.312;9.244;2023-08-06T07:30:33;1.53;;;0.57;;
3939;SDS011;1984;48.312;9.244;2023-08-06T07:32:59;0.50;;;0.50;;
3939;SDS011;1984;48.312;9.244;2023-08-06T07:35:24;3.80;;;0.47;;
3939;SDS011;1984;48.312;9.244;2023-08-06T07:37:49;0.40;;;0.40;;
3939;SDS011;1984;48.312;9.244;2023-08-06T07:40:15;0.40;;;0.40;;
3939;SDS011;1984;48.312;9.244;2023-08-06T07:42:41;0.70;;;0.50;;
3939;SDS011;1984;48.312;9.244;2023-08-06T07:45:06;1.13;;;0.50;;
3939;SDS011;1984;48.312;9.244;2023-08-06T07:47:33;1.20;;;1.10;;
3939;SDS011;1984;48.312;9.244;2023-08-06T07:49:58;0.50;;;0.50;;
3939;SDS011;1984;48.312;9.244;2023-08-06T07:52:24;0.50;;;0.50;;
3939;SDS011;1984;48.312;9.244;2023-08-06T07:54:50;0.40;;;0.40;;
3939;SDS011;1984;48.312;9.244;2023-08-06T07:57:15;0.40;;;0.40;;
3939;SDS011;1984;48.312;9.244;2023-08-06T07:59:41;0.60;;;0.50;;
3939;SDS011;1984;48.312;9.244;2023-08-06T08:02:07;0.40;;;0.40;;
3939;SDS011;1984;48.312;9.244;2023-08-06T08:04:32;0.40;;;0.40;;
3939;SDS011;1984;48.312;9.244;2023-08-06T08:06:58;0.40;;;0.40;;
3939;SDS011;1984;48.312;9.244;2023-08-06T08:09:23;0.40;;;0.40;;
3939;SDS011;1984;48.312;9.244;2023-08-06T08:11:49;0.60;;;0.40;;
3939;SDS011;1984;48.312;9.244;2023-08-06T08:14:15;0.60;;;0.50;;
3939;SDS011;1984;48.312;9.244;2023-08-06T08:16:40;0.87;;;0.60;;
3939;SDS011;1984;48.312;9.244;2023-08-06T08:19:06;0.40;;;0.40;;
3939;SDS011;1984;48.312;9.244;2023-08-06T08:21:32;0.70;;;0.70;;
3939;SDS011;1984;48.312;9.244;2023-08-06T08:23:59;0.60;;;0.50;;
3939;SDS011;1984;48.312;9.244;2023-08-06T08:26:25;1.67;;;0.40;;
3939;SDS011;1984;48.312;9.244;2023-08-06T08:28:52;0.40;;;0.40;;
3939;SDS011;1984;48.312;9.244;2023-08-06T08:31:18;0.50;;;0.50;;
3939;SDS011;1984;48.312;9.244;2023-08-06T08:33:44;0.40;;;0.40;;
3939;SDS011;1984;48.312;9.244;2023-08-06T08:36:09;0.50;;;0.50;;
3939;SDS011;1984;48.312;9.244;2023-08-06T08:38:35;0.50;;;0.50;;
3939;SDS011;1984;48.312;9.244;2023-08-06T08:41:01;0.40;;;0.40;;
3939;SDS011;1984;48.312;9.244;2023-08-06T08:43:26;1.20;;;0.40;;
3939;SDS011;1984;48.312;9.244;2023-08-06T08:45:52;0.40;;;0.40;;
3939;SDS011;1984;48.312;9.244;2023-08-06T08:48:25;0.43;;;0.43;;
3939;SDS011;1984;48.312;9.244;2023-08-06T08:50:52;0.50;;;0.50;;
3939;SDS011;1984;48.312;9.244;2023-08-06T08:53:18;0.50;;;0.50;;
3939;SDS011;1984;48.312;9.244;2023-08-06T08:55:47;0.50;;;0.50;;
3939;SDS011;1984;48.312;9.244;2023-08-06T08:58:13;0.40;;;0.40;;
3939;SDS011;1984;48.312;9.244;2023-08-06T09:00:40;0.40;;;0.40;;
3939;SDS011;1984;48.312;9.244;2023-08-06T09:03:07;0.40;;;0.40;;
3939;SDS011;1984;48.312;9.244;2023-08-06T09:05:33;0.40;;;0.40;;
3939;SDS011;1984;48.312;9.244;2023-08-06T09:08:01;0.40;;;0.40;;
3939;SDS011;1984;48.312;9.244;2023-08-06T09:10:28;0.40;;;0.40;;
3939;SDS011;1984;48.312;9.244;2023-08-06T09:12:54;0.40;;;0.40;;
3939;SDS011;1984;48.312;9.244;2023-08-06T09:15:26;1.90;;;0.50;;
3939;SDS011;1984;48.312;9.244;2023-08-06T09:17:52;0.40;;;0.40;;
3939;SDS011;1984;48.312;9.244;2023-08-06T09:20:19;0.40;;;0.40;;
3939;SDS011;1984;48.312;9.244;2023-08-06T09:22:45;0.50;;;0.50;;
3939;SDS011;1984;48.312;9.244;2023-08-06T09:25:13;0.40;;;0.40;;
3939;SDS011;1984;48.312;9.244;2023-08-06T09:27:52;0.40;;;0.40;;
3939;SDS011;1984;48.312;9.244;2023-08-06T09:30:33;0.40;;;0.40;;
3939;SDS011;1984;48.312;9.244;2023-08-06T09:33:00;0.40;;;0.40;;
3939;SDS011;1984;48.312;9.244;2023-08-06T09:35:29;0.50;;;0.50;;
3939;SDS011;1984;48.312;9.244;2023-08-06T09:37:56;0.40;;;0.40;;
3939;SDS011;1984;48.312;9.244;2023-08-06T09:40:35;0.40;;;0.40;;
3939;SDS011;1984;48.312;9.244;2023-08-06T09:43:02;0.40;;;0.40;;
3939;SDS011;1984;48.312;9.244;2023-08-06T09:45:28;0.40;;;0.40;;
3939;SDS011;1984;48.312;9.244;2023-08-06T09:48:03;0.50;;;0.50;;
3939;SDS011;1984;48.312;9.244;2023-08-06T09:50:33;0.40;;;0.40;;
3939;SDS011;1984;48.312;9.244;2023-08-06T09:53:01;0.63;;;0.40;;
3939;SDS011;1984;48.312;9.244;2023-08-06T09:55:28;0.43;;;0.43;;
3939;SDS011;1984;48.312;9.244;2023-08-06T09:57:54;0.40;;;0.40;;
3939;SDS011;1984;48.312;9.244;2023-08-06T10:00:20;0.47;;;0.47;;
3939;SDS011;1984;48.312;9.244;2023-08-06T10:02:46;0.40;;;0.40;;
3939;SDS011;1984;48.312;9.244;2023-08-06T10:05:13;0.50;;;0.50;;
3939;SDS011;1984;48.312;9.244;2023-08-06T10:07:39;0.60;;;0.50;;
3939;SDS011;1984;48.312;9.244;2023-08-06T10:10:05;0.40;;;0.40;;
3939;SDS011;1984;48.312;9.244;2023-08-06T10:12:36;0.47;;;0.47;;
3939;SDS011;1984;48.312;9.244;2023-08-06T10:15:06;0.60;;;0.60;;
3939;SDS011;1984;48.312;9.244;2023-08-06T10:17:35;0.83;;;0.60;;
3939;SDS011;1984;48.312;9.244;2023-08-06T10:20:04;2.43;;;0.60;;
3939;SDS011;1984;48.312;9.244;2023-08-06T10:22:32;1.43;;;1.00;;
3939;SDS011;1984;48.312;9.244;2023-08-06T10:24:58;0.83;;;0.83;;
3939;SDS011;1984;48.312;9.244;2023-08-06T10:27:33;0.80;;;0.80;;
3939;SDS011;1984;48.312;9.244;2023-08-06T10:32:59;1.80;;;0.60;;
3939;SDS011;1984;48.312;9.244;2023-08-06T10:35:36;0.50;;;0.50;;
3939;SDS011;1984;48.312;9.244;2023-08-06T10:40:41;0.50;;;0.50;;
3939;SDS011;1984;48.312;9.244;2023-08-06T10:43:29;0.50;;;0.50;;
3939;SDS011;1984;48.312;9.244;2023-08-06T10:45:57;0.50;;;0.50;;
3939;SDS011;1984;48.312;9.244;2023-08-06T10:48:33;0.50;;;0.50;;
3939;SDS011;1984;48.312;9.244;2023-08-06T10:51:04;57.93;;;2.00;;
3939;SDS011;1984;48.312;9.244;2023-08-06T10:53:33;0.60;;;0.60;;
3939;SDS011;1984;48.312;9.244;2023-08-06T10:55:59;1.13;;;1.03;;
3939;SDS011;1984;48.312;9.244;2023-08-06T10:58:25;0.50;;;0.50;;
3939;SDS011;1984;48.312;9.244;2023-08-06T11:00:51;2.03;;;0.70;;
3939;SDS011;1984;48.312;9.244;2023-08-06T11:03:16;0.70;;;0.57;;
3939;SDS011;1984;48.312;9.244;2023-08-06T11:05:48;0.50;;;0.50;;
3939;SDS011;1984;48.312;9.244;2023-08-06T11:08:22;0.50;;;0.50;;
3939;SDS011;1984;48.312;9.244;2023-08-06T11:10:51;0.50;;;0.50;;
3939;SDS011;1984;48.312;9.244;2023-08-06T11:13:17;0.40;;;0.40;;
3939;SDS011;1984;48.312;9.244;2023-08-06T11:15:46;0.50;;;0.50;;
3939;SDS011;1984;48.312;9.244;2023-08-06T11:18:12;0.97;;;0.60;;
3939;SDS011;1984;48.312;9.244;2023-08-06T11:20:38;0.80;;;0.80;;
3939;SDS011;1984;48.312;9.244;2023-08-06T11:23:04;0.63;;;0.63;;
3939;SDS011;1984;48.312;9.244;2023-08-06T11:25:30;0.67;;;0.67;;
3939;SDS011;1984;48.312;9.244;2023-08-06T11:27:56;1.33;;;0.40;;
3939;SDS011;1984;48.312;9.244;2023-08-06T11:30:21;0.40;;;0.40;;
3939;SDS011;1984;48.312;9.244;2023-08-06T11:32:47;0.50;;;0.50;;
3939;SDS011;1984;48.312;9.244;2023-08-06T11:35:14;0.60;;;0.50;;
3939;SDS011;1984;48.312;9.244;2023-08-06T11:37:44;0.40;;;0.40;;
3939;SDS011;1984;48.312;9.244;2023-08-06T11:40:12;0.50;;;0.50;;
3939;SDS011;1984;48.312;9.244;2023-08-06T11:42:40;0.50;;;0.50;;
3939;SDS011;1984;48.312;9.244;2023-08-06T11:45:07;0.50;;;0.50;;
3939;SDS011;1984;48.312;9.244;2023-08-06T11:47:37;0.40;;;0.40;;
3939;SDS011;1984;48.312;9.244;2023-08-06T11:50:05;0.40;;;0.40;;
3939;SDS011;1984;48.312;9.244;2023-08-06T11:52:31;0.50;;;0.50;;
3939;SDS011;1984;48.312;9.244;2023-08-06T11:55:01;3.13;;;0.40;;
3939;SDS011;1984;48.312;9.244;2023-08-06T11:57:32;0.50;;;0.50;;
3939;SDS011;1984;48.312;9.244;2023-08-06T12:00:03;0.40;;;0.40;;
3939;SDS011;1984;48.312;9.244;2023-08-06T12:02:30;1.27;;;0.50;;
3939;SDS011;1984;48.312;9.244;2023-08-06T12:05:10;1.23;;;0.50;;
3939;SDS011;1984;48.312;9.244;2023-08-06T12:07:50;0.40;;;0.40;;
3939;SDS011;1984;48.312;9.244;2023-08-06T12:10:24;0.50;;;0.50;;
3939;SDS011;1984;48.312;9.244;2023-08-06T12:12:51;0.83;;;0.63;;
3939;SDS011;1984;48.312;9.244;2023-08-06T12:15:16;0.70;;;0.57;;
3939;SDS011;1984;48.312;9.244;2023-08-06T12:17:42;0.40;;;0.40;;
3939;SDS011;1984;48.312;9.244;2023-08-06T12:20:08;0.40;;;0.40;;
3939;SDS011;1984;48.312;9.244;2023-08-06T12:22:35;0.40;;;0.40;;
3939;SDS011;1984;48.312;9.244;2023-08-06T12:25:02;0.40;;;0.40;;
3939;SDS011;1984;48.312;9.244;2023-08-06T12:27:33;0.50;;;0.50;;
3939;SDS011;1984;48.312;9.244;2023-08-06T12:30:02;0.97;;;0.47;;
3939;SDS011;1984;48.312;9.244;2023-08-06T12:32:31;0.40;;;0.40;;
3939;SDS011;1984;48.312;9.244;2023-08-06T12:34:57;0.67;;;0.50;;
3939;SDS011;1984;48.312;9.244;2023-08-06T12:37:23;0.60;;;0.60;;
3939;SDS011;1984;48.312;9.244;2023-08-06T12:39:50;0.60;;;0.60;;
3939;SDS011;1984;48.312;9.244;2023-08-06T12:42:15;0.80;;;0.70;;
3939;SDS011;1984;48.312;9.244;2023-08-06T12:44:41;0.70;;;0.70;;
3939;SDS011;1984;48.312;9.244;2023-08-06T12:47:07;1.13;;;0.70;;
3939;SDS011;1984;48.312;9.244;2023-08-06T12:49:32;0.90;;;0.90;;
3939;SDS011;1984;48.312;9.244;2023-08-06T12:51:58;0.80;;;0.80;;
3939;SDS011;1984;48.312;9.244;2023-08-06T12:54:25;0.80;;;0.80;;
3939;SDS011;1984;48.312;9.244;2023-08-06T12:56:51;0.70;;;0.70;;
3939;SDS011;1984;48.312;9.244;2023-08-06T12:59:17;0.97;;;0.90;;
3939;SDS011;1984;48.312;9.244;2023-08-06T13:01:43;0.70;;;0.70;;
3939;SDS011;1984;48.312;9.244;2023-08-06T13:04:09;2.30;;;1.20;;
3939;SDS011;1984;48.312;9.244;2023-08-06T13:06:35;1.03;;;0.97;;
3939;SDS011;1984;48.312;9.244;2023-08-06T13:09:10;0.80;;;0.60;;
3939;SDS011;1984;48.312;9.244;2023-08-06T13:11:38;0.90;;;0.90;;
3939;SDS011;1984;48.312;9.244;2023-08-06T13:14:06;0.83;;;0.83;;
3939;SDS011;1984;48.312;9.244;2023-08-06T13:16:34;1.00;;;0.63;;
3939;SDS011;1984;48.312;9.244;2023-08-06T13:19:00;2.00;;;0.70;;
3939;SDS011;1984;48.312;9.244;2023-08-06T13:21:32;0.60;;;0.60;;
3939;SDS011;1984;48.312;9.244;2023-08-06T13:24:00;2.53;;;1.10;;
3939;SDS011;1984;48.312;9.244;2023-08-06T13:26:27;0.50;;;0.50;;
3939;SDS011;1984;48.312;9.244;2023-08-06T13:28:54;1.07;;;0.90;;
3939;SDS011;1984;48.312;9.244;2023-08-06T13:31:20;1.10;;;0.60;;
3939;SDS011;1984;48.312;9.244;2023-08-06T13:33:46;0.50;;;0.50;;
3939;SDS011;1984;48.312;9.244;2023-08-06T13:36:13;0.50;;;0.50;;
3939;SDS011;1984;48.312;9.244;2023-08-06T13:38:38;0.70;;;0.70;;
3939;SDS011;1984;48.312;9.244;2023-08-06T13:41:04;0.47;;;0.47;;
3939;SDS011;1984;48.312;9.244;2023-08-06T13:43:30;0.60;;;0.60;;
3939;SDS011;1984;48.312;9.244;2023-08-06T13:45:56;0.53;;;0.53;;
3939;SDS011;1984;48.312;9.244;2023-08-06T13:48:22;1.43;;;0.60;;
3939;SDS011;1984;48.312;9.244;2023-08-06T13:50:48;0.57;;;0.57;;
3939;SDS011;1984;48.312;9.244;2023-08-06T13:53:13;0.50;;;0.50;;
3939;SDS011;1984;48.312;9.244;2023-08-06T13:55:39;0.70;;;0.70;;
3939;SDS011;1984;48.312;9.244;2023-08-06T13:58:04;0.60;;;0.60;;
3939;SDS011;1984;48.312;9.244;2023-08-06T14:00:30;0.73;;;0.73;;
3939;SDS011;1984;48.312;9.244;2023-08-06T14:02:55;0.50;;;0.50;;
3939;SDS011;1984;48.312;9.244;2023-08-06T14:05:21;0.63;;;0.40;;
3939;SDS011;1984;48.312;9.244;2023-08-06T14:07:46;0.50;;;0.50;;
3939;SDS011;1984;48.312;9.244;2023-08-06T14:10:12;0.93;;;0.70;;
3939;SDS011;1984;48.312;9.244;2023-08-06T14:12:38;0.90;;;0.70;;
3939;SDS011;1984;48.312;9.244;2023-08-06T14:15:04;0.50;;;0.50;;
3939;SDS011;1984;48.312;9.244;2023-08-06T14:17:30;0.50;;;0.50;;
3939;SDS011;1984;48.312;9.244;2023-08-06T14:19:55;0.50;;;0.50;;
3939;SDS011;1984;48.312;9.244;2023-08-06T14:22:21;0.50;;;0.50;;
3939;SDS011;1984;48.312;9.244;2023-08-06T14:24:47;0.97;;;0.50;;
3939;SDS011;1984;48.312;9.244;2023-08-06T14:27:13;1.00;;;0.57;;
3939;SDS011;1984;48.312;9.244;2023-08-06T14:29:38;0.50;;;0.50;;
3939;SDS011;1984;48.312;9.244;2023-08-06T14:32:04;0.60;;;0.60;;
3939;SDS011;1984;48.312;9.244;2023-08-06T14:34:30;1.37;;;0.60;;
3939;SDS011;1984;48.312;9.244;2023-08-06T14:36:55;0.70;;;0.70;;
3939;SDS011;1984;48.312;9.244;2023-08-06T14:39:21;0.50;;;0.50;;
3939;SDS011;1984;48.312;9.244;2023-08-06T14:41:47;0.50;;;0.50;;
3939;SDS011;1984;48.312;9.244;2023-08-06T14:44:13;0.50;;;0.50;;
3939;SDS011;1984;48.312;9.244;2023-08-06T14:46:38;0.50;;;0.50;;
3939;SDS011;1984;48.312;9.244;2023-08-06T14:49:04;0.57;;;0.57;;
3939;SDS011;1984;48.312;9.244;2023-08-06T14:51:30;5.80;;;0.67;;
3939;SDS011;1984;48.312;9.244;2023-08-06T14:53:55;1.17;;;0.50;;
3939;SDS011;1984;48.312;9.244;2023-08-06T14:56:21;0.63;;;0.50;;
3939;SDS011;1984;48.312;9.244;2023-08-06T14:58:47;0.77;;;0.70;;
3939;SDS011;1984;48.312;9.244;2023-08-06T15:01:12;5.13;;;0.57;;
3939;SDS011;1984;48.312;9.244;2023-08-06T15:03:38;0.60;;;0.60;;
3939;SDS011;1984;48.312;9.244;2023-08-06T15:06:03;1.70;;;0.70;;
3939;SDS011;1984;48.312;9.244;2023-08-06T15:08:29;1.00;;;0.70;;
3939;SDS011;1984;48.312;9.244;2023-08-06T15:10:54;0.90;;;0.70;;
3939;SDS011;1984;48.312;9.244;2023-08-06T15:13:20;1.47;;;1.00;;
3939;SDS011;1984;48.312;9.244;2023-08-06T15:15:46;0.53;;;0.53;;
3939;SDS011;1984;48.312;9.244;2023-08-06T15:18:12;0.60;;;0.60;;
3939;SDS011;1984;48.312;9.244;2023-08-06T15:20:38;0.80;;;0.80;;